createdAt,value
2023-04-19T00:01:07.556Z,2.47
2023-04-19T00:04:11.437Z,3.10
2023-04-19T00:07:16.909Z,3.33
2023-04-19T00:10:21.390Z,2.85
2023-04-19T00:13:26.433Z,2.83
2023-04-19T00:16:33.152Z,2.83
2023-04-19T00:19:36.920Z,2.70
2023-04-19T00:22:41.900Z,2.80
2023-04-19T00:25:47.484Z,2.92
2023-04-19T00:28:52.494Z,2.50
2023-04-19T00:32:00.606Z,2.58
2023-04-19T00:35:05.522Z,3.28
2023-04-19T00:38:08.822Z,2.75
2023-04-19T00:41:14.117Z,3.42
2023-04-19T00:44:19.516Z,2.28
2023-04-19T00:47:23.774Z,2.53
2023-04-19T00:50:28.925Z,2.83
2023-04-19T00:53:33.555Z,2.95
2023-04-19T00:56:37.452Z,2.75
2023-04-19T00:59:43.055Z,2.40
2023-04-19T01:02:47.989Z,2.47
2023-04-19T01:05:51.521Z,2.45
2023-04-19T01:08:55.246Z,2.63
2023-04-19T01:12:00.022Z,2.58
2023-04-19T01:15:05.835Z,2.90
2023-04-19T01:18:11.542Z,2.05
2023-04-19T01:21:17.165Z,1.90
2023-04-19T01:24:22.544Z,2.05
2023-04-19T01:27:26.829Z,1.95
2023-04-19T01:30:31.269Z,1.98
2023-04-19T01:33:35.543Z,2.03
2023-04-19T01:36:39.221Z,2.17
2023-04-19T01:39:44.630Z,1.75
2023-04-19T01:42:48.120Z,1.80
2023-04-19T01:45:52.713Z,1.60
2023-04-19T01:48:56.608Z,1.92
2023-04-19T01:52:02.371Z,1.70
2023-04-19T01:55:07.815Z,2.15
2023-04-19T01:58:12.819Z,1.40
2023-04-19T02:01:17.036Z,2.00
2023-04-19T02:04:22.139Z,2.05
2023-04-19T02:07:26.397Z,1.98
2023-04-19T02:10:32.616Z,2.63
2023-04-19T02:13:40.272Z,1.80
2023-04-19T02:16:45.328Z,1.90
2023-04-19T02:19:49.622Z,1.70
2023-04-19T02:22:55.508Z,2.05
2023-04-19T02:26:03.056Z,1.92
2023-04-19T02:29:08.344Z,2.15
2023-04-19T02:32:12.552Z,2.03
2023-04-19T02:35:17.046Z,1.67
2023-04-19T02:38:22.872Z,2.20
2023-04-19T02:41:28.450Z,1.83
2023-04-19T02:44:31.997Z,2.20
2023-04-19T02:47:37.771Z,2.30
2023-04-19T02:50:46.512Z,2.00
2023-04-19T02:53:51.747Z,2.03
2023-04-19T02:56:57.684Z,2.28
2023-04-19T03:00:01.238Z,2.00
2023-04-19T03:03:07.570Z,1.90
2023-04-19T03:06:12.124Z,1.83
2023-04-19T03:09:15.945Z,1.90
2023-04-19T03:12:21.211Z,1.75
2023-04-19T03:15:24.886Z,1.88
2023-04-19T03:18:28.764Z,1.77
2023-04-19T03:21:38.257Z,2.22
2023-04-19T03:24:42.414Z,1.83
2023-04-19T03:27:56.680Z,1.77
2023-04-19T03:31:19.925Z,1.77
2023-04-19T03:34:29.677Z,1.63
2023-04-19T03:37:36.745Z,1.63
2023-04-19T03:40:40.867Z,1.70
2023-04-19T03:43:49.164Z,1.75
2023-04-19T03:46:52.748Z,1.73
2023-04-19T03:50:00.710Z,1.73
2023-04-19T03:53:07.274Z,2.20
2023-04-19T03:56:11.416Z,1.73
2023-04-19T03:59:16.347Z,1.55
2023-04-19T04:02:21.449Z,1.60
2023-04-19T04:05:26.348Z,1.65
2023-04-19T04:08:30.230Z,1.80
2023-04-19T04:11:34.156Z,1.42
2023-04-19T04:14:39.013Z,1.80
2023-04-19T04:17:44.043Z,1.50
2023-04-19T04:20:48.121Z,1.55
2023-04-19T04:23:53.417Z,1.70
2023-04-19T04:27:14.208Z,1.27
2023-04-19T04:30:20.556Z,1.30
2023-04-19T04:33:26.952Z,1.23
2023-04-19T04:36:32.152Z,1.20
2023-04-19T04:39:39.473Z,1.08
2023-04-19T04:42:45.423Z,1.40
2023-04-19T04:45:50.797Z,1.33
2023-04-19T04:48:55.915Z,1.60
2023-04-19T04:52:00.696Z,1.08
2023-04-19T04:55:09.410Z,1.02
2023-04-19T04:58:20.350Z,1.00
2023-04-19T05:01:46.861Z,1.95
2023-04-19T05:04:52.014Z,1.30
2023-04-19T05:07:55.683Z,1.27
2023-04-19T05:10:59.752Z,1.42
2023-04-19T05:14:07.252Z,0.95
2023-04-19T05:17:13.927Z,1.33
2023-04-19T05:20:19.563Z,1.02
2023-04-19T05:23:29.332Z,1.20
2023-04-19T05:26:34.070Z,1.10
2023-04-19T05:29:39.298Z,0.90
2023-04-19T05:32:46.365Z,1.17
2023-04-19T05:35:51.797Z,0.88
2023-04-19T05:38:56.147Z,0.90
2023-04-19T05:42:00.343Z,1.00
2023-04-19T05:45:06.040Z,1.00
2023-04-19T05:48:12.867Z,1.33
2023-04-19T05:51:39.615Z,1.08
2023-04-19T05:54:47.617Z,1.00
2023-04-19T05:57:54.366Z,1.15
2023-04-19T06:01:01.871Z,0.88
2023-04-19T06:04:07.548Z,0.93
2023-04-19T06:07:22.226Z,0.77
2023-04-19T06:10:40.275Z,0.75
2023-04-19T06:13:56.161Z,0.93
2023-04-19T06:17:00.425Z,0.90
2023-04-19T06:20:08.329Z,0.88
2023-04-19T06:23:15.548Z,0.77
2023-04-19T06:26:19.463Z,0.80
2023-04-19T06:29:25.717Z,1.00
2023-04-19T06:32:31.871Z,0.52
2023-04-19T06:35:37.832Z,1.00
2023-04-19T06:38:48.242Z,0.77
2023-04-19T06:41:53.397Z,0.65
2023-04-19T06:44:58.293Z,0.75
2023-04-19T06:48:03.405Z,0.63
2023-04-19T06:51:11.690Z,0.75
2023-04-19T06:54:15.086Z,0.68
2023-04-19T06:57:18.812Z,0.70
2023-04-19T07:00:23.921Z,0.90
2023-04-19T07:03:31.894Z,0.63
2023-04-19T07:06:38.805Z,0.60
2023-04-19T07:09:44.121Z,0.55
2023-04-19T07:12:47.412Z,0.90
2023-04-19T07:15:53.536Z,0.52
2023-04-19T07:19:00.749Z,0.52
2023-04-19T07:22:06.762Z,0.70
2023-04-19T07:25:13.685Z,0.65
2023-04-19T07:28:18.195Z,0.60
2023-04-19T07:31:22.042Z,0.77
2023-04-19T07:34:25.624Z,0.73
2023-04-19T07:37:34.043Z,0.88
2023-04-19T07:40:38.416Z,0.60
2023-04-19T07:43:42.588Z,0.57
2023-04-19T07:46:48.878Z,0.65
2023-04-19T07:49:55.043Z,0.60
2023-04-19T07:53:00.006Z,0.65
2023-04-19T07:56:06.851Z,1.10
2023-04-19T07:59:13.094Z,0.70
2023-04-19T08:02:19.334Z,0.80
2023-04-19T08:05:23.012Z,0.88
2023-04-19T08:08:30.087Z,0.52
2023-04-19T08:11:36.476Z,1.20
2023-04-19T08:14:56.072Z,0.80
2023-04-19T08:18:04.932Z,0.80
2023-04-19T08:21:09.178Z,0.80
2023-04-19T08:24:16.414Z,0.80
2023-04-19T08:27:19.940Z,1.00
2023-04-19T08:30:24.329Z,0.82
2023-04-19T08:33:30.453Z,0.80
2023-04-19T08:36:43.318Z,0.70
2023-04-19T08:39:51.081Z,0.50
2023-04-19T08:42:55.184Z,0.68
2023-04-19T08:46:00.343Z,0.85
2023-04-19T08:49:06.684Z,0.98
2023-04-19T08:52:11.410Z,0.90
2023-04-19T08:55:17.375Z,0.90
2023-04-19T08:58:32.897Z,0.73
2023-04-19T09:01:46.099Z,0.60
2023-04-19T09:04:49.984Z,0.90
2023-04-19T09:07:54.875Z,1.00
2023-04-19T09:11:00.308Z,0.90
2023-04-19T09:14:11.468Z,0.82
2023-04-19T09:17:21.771Z,0.93
2023-04-19T09:20:38.939Z,0.85
2023-04-19T09:23:48.292Z,0.85
2023-04-19T09:26:59.152Z,0.75
2023-04-19T09:30:03.826Z,0.95
2023-04-19T09:33:12.688Z,1.30
2023-04-19T09:36:29.512Z,1.02
2023-04-19T09:39:33.818Z,0.88
2023-04-19T09:45:56.924Z,0.80
2023-04-19T09:49:23.085Z,1.05
2023-04-19T09:52:35.092Z,1.02
2023-04-19T09:55:48.964Z,1.38
2023-04-19T09:59:20.054Z,1.00
2023-04-19T10:02:32.928Z,1.10
2023-04-19T10:05:37.387Z,1.30
2023-04-19T10:08:43.496Z,1.20
2023-04-19T10:11:52.141Z,1.02
2023-04-19T10:15:00.003Z,1.25
2023-04-19T10:18:04.076Z,1.20
2023-04-19T10:21:12.305Z,1.17
2023-04-19T10:24:21.527Z,1.30
2023-04-19T10:27:28.440Z,1.17
2023-04-19T10:30:33.613Z,1.25
2023-04-19T10:33:38.167Z,0.98
2023-04-19T10:36:46.278Z,1.10
2023-04-19T10:39:51.806Z,1.02
2023-04-19T10:43:14.196Z,1.38
2023-04-19T10:46:37.772Z,1.00
2023-04-19T10:49:48.346Z,0.60
2023-04-19T10:52:52.716Z,0.85
2023-04-19T10:55:56.495Z,1.02
2023-04-19T10:59:24.637Z,1.38
2023-04-19T11:02:31.003Z,0.93
2023-04-19T11:06:05.953Z,1.20
2023-04-19T11:09:11.935Z,1.20
2023-04-19T11:12:17.382Z,1.20
2023-04-19T11:15:24.973Z,1.20
2023-04-19T11:18:31.843Z,1.10
2023-04-19T11:21:40.806Z,0.90
2023-04-19T11:24:48.489Z,1.23
2023-04-19T11:27:52.944Z,0.85
2023-04-19T11:30:56.968Z,1.20
2023-04-19T11:34:01.789Z,1.00
2023-04-19T11:37:08.200Z,1.08
2023-04-19T11:40:19.200Z,1.20
2023-04-19T11:43:22.823Z,0.82
2023-04-19T11:46:27.696Z,0.90
2023-04-19T11:49:33.784Z,1.10
2023-04-19T11:52:42.473Z,1.10
2023-04-19T11:55:46.854Z,1.13
2023-04-19T11:58:51.578Z,1.05
2023-04-19T12:01:59.168Z,0.95
2023-04-19T12:05:10.508Z,1.27
2023-04-19T12:08:15.592Z,0.90
2023-04-19T12:11:24.565Z,1.00
2023-04-19T12:14:29.314Z,1.08
2023-04-19T12:17:40.061Z,1.27
2023-04-19T12:20:49.696Z,1.23
2023-04-19T12:23:56.747Z,1.10
2023-04-19T12:27:00.477Z,1.10
2023-04-19T12:30:07.196Z,1.15
2023-04-19T12:33:12.563Z,1.42
2023-04-19T12:36:19.438Z,0.80
2023-04-19T12:39:24.972Z,1.20
2023-04-19T12:42:29.326Z,1.27
2023-04-19T12:45:34.968Z,1.10
2023-04-19T12:48:38.699Z,1.08
2023-04-19T12:51:43.259Z,1.27
2023-04-19T12:54:51.217Z,0.95
2023-04-19T12:57:55.262Z,0.93
2023-04-19T13:00:58.855Z,1.38
2023-04-19T13:04:03.375Z,1.23
2023-04-19T13:07:08.439Z,1.15
2023-04-19T13:10:16.058Z,1.00
2023-04-19T13:13:21.568Z,1.23
2023-04-19T13:16:25.811Z,1.30
2023-04-19T13:19:33.470Z,1.00
2023-04-19T13:22:37.685Z,1.30
2023-04-19T13:25:44.817Z,0.90
2023-04-19T13:28:48.534Z,1.17
2023-04-19T13:31:55.725Z,1.08
2023-04-19T13:35:00.592Z,1.20
2023-04-19T13:38:04.539Z,1.30
2023-04-19T13:41:09.828Z,1.25
2023-04-19T13:44:14.635Z,1.30
2023-04-19T13:47:18.569Z,1.27
2023-04-19T13:50:24.955Z,0.80
2023-04-19T13:53:30.175Z,1.55
2023-04-19T13:56:36.099Z,1.70
2023-04-19T13:59:40.248Z,1.30
2023-04-19T14:02:45.174Z,1.00
2023-04-19T14:05:49.622Z,1.20
2023-04-19T14:08:52.996Z,1.10
2023-04-19T14:11:58.182Z,1.35
2023-04-19T14:15:01.727Z,1.00
2023-04-19T14:18:07.658Z,1.30
2023-04-19T14:21:11.795Z,1.05
2023-04-19T14:24:15.884Z,1.15
2023-04-19T14:27:21.376Z,1.08
2023-04-19T14:30:26.172Z,1.33
2023-04-19T14:33:34.034Z,1.10
2023-04-19T14:36:37.650Z,1.48
2023-04-19T14:39:41.390Z,1.15
2023-04-19T14:42:47.177Z,1.05
2023-04-19T14:45:51.233Z,1.20
2023-04-19T14:48:55.467Z,1.27
2023-04-19T14:51:58.865Z,1.42
2023-04-19T14:55:02.428Z,1.13
2023-04-19T14:58:09.095Z,1.20
2023-04-19T15:01:14.170Z,1.27
2023-04-19T15:04:17.968Z,1.63
2023-04-19T15:07:23.636Z,1.38
2023-04-19T15:10:27.283Z,1.40
2023-04-19T15:13:32.550Z,1.23
2023-04-19T15:16:36.985Z,1.20
2023-04-19T15:19:41.071Z,1.10
2023-04-19T15:22:44.975Z,1.13
2023-04-19T15:25:49.909Z,1.20
2023-04-19T15:28:59.495Z,1.17
2023-04-19T15:32:04.773Z,1.40
2023-04-19T15:35:09.601Z,1.17
2023-04-19T15:38:15.338Z,1.38
2023-04-19T15:41:18.861Z,0.93
2023-04-19T15:44:24.393Z,1.52
2023-04-19T15:47:27.959Z,1.00
2023-04-19T15:50:31.451Z,1.10
2023-04-19T15:53:35.888Z,1.13
2023-04-19T15:56:39.847Z,0.80
2023-04-19T15:59:44.965Z,1.13
2023-04-19T16:02:49.448Z,5.78
2023-04-19T16:05:55.374Z,1.40
2023-04-19T16:08:59.358Z,1.50
2023-04-19T16:12:03.031Z,2.00
2023-04-19T16:15:09.202Z,1.23
2023-04-19T16:18:13.991Z,1.15
2023-04-19T16:21:18.175Z,1.20
2023-04-19T16:24:21.690Z,0.95
2023-04-19T16:27:25.351Z,1.13
2023-04-19T16:30:30.776Z,1.83
2023-04-19T16:33:34.801Z,1.02
2023-04-19T16:36:38.684Z,1.10
2023-04-19T16:39:43.522Z,1.08
2023-04-19T16:42:48.215Z,0.98
2023-04-19T16:45:53.284Z,1.13
2023-04-19T16:48:58.795Z,1.27
2023-04-19T16:52:02.345Z,2.35
2023-04-19T16:55:06.452Z,1.00
2023-04-19T16:58:09.962Z,1.63
2023-04-19T17:01:15.043Z,3.08
2023-04-19T17:04:18.733Z,1.70
2023-04-19T17:07:22.674Z,2.33
2023-04-19T17:10:30.136Z,2.10
2023-04-19T17:13:34.894Z,1.55
2023-04-19T17:16:40.022Z,2.05
2023-04-19T17:19:46.581Z,1.00
2023-04-19T17:22:51.564Z,2.17
2023-04-19T17:25:56.293Z,1.50
2023-04-19T17:29:14.371Z,1.05
2023-04-19T17:32:20.455Z,1.25
2023-04-19T17:35:30.435Z,1.38
2023-04-19T17:38:34.348Z,1.42
2023-04-19T17:41:40.271Z,1.10
2023-04-19T17:44:43.955Z,1.50
2023-04-19T17:47:55.728Z,1.63
2023-04-19T17:50:59.936Z,1.30
2023-04-19T17:54:05.679Z,1.42
2023-04-19T17:57:10.273Z,3.20
2023-04-19T18:00:14.305Z,1.95
2023-04-19T18:03:19.413Z,2.63
2023-04-19T18:06:26.184Z,2.80
2023-04-19T18:09:30.144Z,1.73
2023-04-19T18:12:34.293Z,1.70
2023-04-19T18:15:41.895Z,1.50
2023-04-19T18:18:46.865Z,0.98
2023-04-19T18:21:51.961Z,1.38
2023-04-19T18:24:55.839Z,1.50
2023-04-19T18:27:59.296Z,1.42
2023-04-19T18:31:02.836Z,1.27
2023-04-19T18:34:08.152Z,1.33
2023-04-19T18:37:16.483Z,1.65
2023-04-19T18:40:21.665Z,1.20
2023-04-19T18:43:25.866Z,1.27
2023-04-19T18:46:30.267Z,1.50
2023-04-19T18:49:39.870Z,1.30
2023-04-19T18:52:43.828Z,1.30
2023-04-19T18:55:49.423Z,1.52
2023-04-19T18:58:54.234Z,1.65
2023-04-19T19:02:08.274Z,1.48
2023-04-19T19:05:16.216Z,1.45
2023-04-19T19:08:24.739Z,1.50
2023-04-19T19:14:41.622Z,1.40
2023-04-19T19:17:49.293Z,1.40
2023-04-19T19:20:59.324Z,1.05
2023-04-19T19:24:05.861Z,1.38
2023-04-19T19:27:12.210Z,0.95
2023-04-19T19:30:16.593Z,1.30
2023-04-19T19:33:24.317Z,1.33
2023-04-19T19:36:31.243Z,1.40
2023-04-19T19:39:38.952Z,1.38
2023-04-19T19:42:44.899Z,1.10
2023-04-19T19:45:48.976Z,1.60
2023-04-19T19:48:54.184Z,1.27
2023-04-19T19:52:05.265Z,0.95
2023-04-19T19:55:15.687Z,1.60
2023-04-19T19:58:47.747Z,1.08
2023-04-19T20:01:49.971Z,1.25
2023-04-19T20:04:57.542Z,1.33
2023-04-19T20:08:10.377Z,1.42
2023-04-19T20:11:14.798Z,1.27
2023-04-19T20:14:18.731Z,1.58
2023-04-19T20:17:22.313Z,1.92
2023-04-19T20:20:26.145Z,1.70
2023-04-19T20:23:31.345Z,2.13
2023-04-19T20:26:35.355Z,1.92
2023-04-19T20:29:38.869Z,1.90
2023-04-19T20:32:43.318Z,1.42
2023-04-19T20:35:48.586Z,2.08
2023-04-19T20:38:56.799Z,1.95
2023-04-19T20:42:01.384Z,1.55
2023-04-19T20:45:05.456Z,1.70
2023-04-19T20:48:09.715Z,1.77
2023-04-19T20:51:15.102Z,1.45
2023-04-19T20:54:20.497Z,1.80
2023-04-19T20:57:24.305Z,1.70
2023-04-19T21:00:28.269Z,1.67
2023-04-19T21:03:32.460Z,1.58
2023-04-19T21:06:47.106Z,1.55
2023-04-19T21:09:54.228Z,1.50
2023-04-19T21:12:58.064Z,1.40
2023-04-19T21:16:01.828Z,1.65
2023-04-19T21:19:05.748Z,1.58
2023-04-19T21:22:09.313Z,1.75
2023-04-19T21:25:15.623Z,1.60
2023-04-19T21:28:21.324Z,1.33
2023-04-19T21:31:28.576Z,1.35
2023-04-19T21:34:32.185Z,1.25
2023-04-19T21:37:35.861Z,1.42
2023-04-19T21:40:41.585Z,1.35
2023-04-19T21:43:44.999Z,0.88
2023-04-19T21:46:49.266Z,1.40
2023-04-19T21:49:53.524Z,1.30
2023-04-19T21:52:57.088Z,0.43
2023-04-19T21:56:03.063Z,1.10
2023-04-19T21:59:06.719Z,1.30
2023-04-19T22:02:10.315Z,1.00
2023-04-19T22:05:14.500Z,1.40
2023-04-19T22:08:19.698Z,1.23
2023-04-19T22:11:25.604Z,1.23
2023-04-19T22:14:33.311Z,1.58
2023-04-19T22:17:38.371Z,1.40
2023-04-19T22:20:42.149Z,0.80
2023-04-19T22:23:46.673Z,1.23
2023-04-19T22:26:52.922Z,1.20
2023-04-19T22:29:56.696Z,1.23
2023-04-19T22:33:00.375Z,0.98
2023-04-19T22:36:04.377Z,1.20
2023-04-19T22:39:09.226Z,1.35
2023-04-19T22:42:14.488Z,0.93
2023-04-19T22:45:18.022Z,1.00
2023-04-19T22:48:24.425Z,1.10
2023-04-19T22:51:35.135Z,1.33
2023-04-19T22:54:42.876Z,1.38
2023-04-19T22:57:48.099Z,1.23
2023-04-19T23:00:55.030Z,1.08
2023-04-19T23:03:59.110Z,1.20
2023-04-19T23:07:02.990Z,1.10
2023-04-19T23:10:07.511Z,1.20
2023-04-19T23:13:15.910Z,1.10
2023-04-19T23:16:19.423Z,1.23
2023-04-19T23:19:23.792Z,1.08
2023-04-19T23:22:29.351Z,1.40
2023-04-19T23:25:33.062Z,1.08
2023-04-19T23:28:37.796Z,1.08
2023-04-19T23:31:41.400Z,1.30
2023-04-19T23:34:44.790Z,0.98
2023-04-19T23:37:48.395Z,1.00
2023-04-19T23:40:51.950Z,0.90
2023-04-19T23:43:57.152Z,1.40
2023-04-19T23:47:02.458Z,1.38
2023-04-19T23:50:09.208Z,1.15
2023-04-19T23:53:17.476Z,1.10
2023-04-19T23:56:23.234Z,0.85
2023-04-19T23:59:29.303Z,1.08
